sensor_id;sensor_type;location;lat;lon;timestamp;P1;durP1;ratioP1;P2;durP2;ratioP2
16063;SDS011;8136;53.172;8.256;2024-02-15T06:46:21;29.93;;;15.90;;
16063;SDS011;8136;53.172;8.256;2024-02-15T06:48:48;32.70;;;16.73;;
16063;SDS011;8136;53.172;8.256;2024-02-15T06:51:15;25.53;;;15.40;;
16063;SDS011;8136;53.172;8.256;2024-02-15T06:53:42;29.30;;;15.77;;
16063;SDS011;8136;53.172;8.256;2024-02-15T06:56:09;28.80;;;15.87;;
16063;SDS011;8136;53.172;8.256;2024-02-15T06:58:36;26.87;;;15.67;;
16063;SDS011;8136;53.172;8.256;2024-02-15T07:01:05;31.53;;;15.13;;
16063;SDS011;8136;53.172;8.256;2024-02-15T07:03:34;26.97;;;15.50;;
16063;SDS011;8136;53.172;8.256;2024-02-15T07:06:01;28.53;;;16.77;;
16063;SDS011;8136;53.172;8.256;2024-02-15T07:08:28;26.07;;;15.50;;
16063;SDS011;8136;53.172;8.256;2024-02-15T07:10:55;25.70;;;15.17;;
16063;SDS011;8136;53.172;8.256;2024-02-15T07:13:23;30.50;;;16.33;;
16063;SDS011;8136;53.172;8.256;2024-02-15T07:15:51;27.53;;;16.33;;
16063;SDS011;8136;53.172;8.256;2024-02-15T07:18:18;28.37;;;16.80;;
16063;SDS011;8136;53.172;8.256;2024-02-15T07:20:48;25.43;;;16.20;;
16063;SDS011;8136;53.172;8.256;2024-02-15T07:23:15;30.53;;;16.43;;
16063;SDS011;8136;53.172;8.256;2024-02-15T07:25:43;27.10;;;16.53;;
16063;SDS011;8136;53.172;8.256;2024-02-15T07:28:13;25.97;;;15.73;;
16063;SDS011;8136;53.172;8.256;2024-02-15T07:30:40;23.57;;;14.70;;
16063;SDS011;8136;53.172;8.256;2024-02-15T07:33:07;26.57;;;16.23;;
16063;SDS011;8136;53.172;8.256;2024-02-15T07:35:34;29.13;;;16.87;;
16063;SDS011;8136;53.172;8.256;2024-02-15T07:38:03;26.43;;;15.53;;
16063;SDS011;8136;53.172;8.256;2024-02-15T07:40:30;26.13;;;15.47;;
16063;SDS011;8136;53.172;8.256;2024-02-15T07:42:57;28.03;;;15.87;;
16063;SDS011;8136;53.172;8.256;2024-02-15T07:45:24;24.63;;;15.27;;
16063;SDS011;8136;53.172;8.256;2024-02-15T07:47:51;25.07;;;16.50;;
16063;SDS011;8136;53.172;8.256;2024-02-15T07:50:18;24.37;;;15.50;;
16063;SDS011;8136;53.172;8.256;2024-02-15T07:52:48;24.80;;;15.67;;
16063;SDS011;8136;53.172;8.256;2024-02-15T07:55:17;23.83;;;14.67;;
16063;SDS011;8136;53.172;8.256;2024-02-15T07:57:44;22.67;;;14.23;;
16063;SDS011;8136;53.172;8.256;2024-02-15T08:00:13;23.80;;;14.63;;
16063;SDS011;8136;53.172;8.256;2024-02-15T08:02:41;23.97;;;14.90;;
16063;SDS011;8136;53.172;8.256;2024-02-15T08:05:09;25.57;;;16.13;;
16063;SDS011;8136;53.172;8.256;2024-02-15T08:07:37;24.53;;;14.90;;
16063;SDS011;8136;53.172;8.256;2024-02-15T08:10:05;26.13;;;15.20;;
16063;SDS011;8136;53.172;8.256;2024-02-15T08:12:39;26.90;;;15.93;;
16063;SDS011;8136;53.172;8.256;2024-02-15T08:15:07;22.60;;;14.63;;
16063;SDS011;8136;53.172;8.256;2024-02-15T08:17:37;23.70;;;15.30;;
16063;SDS011;8136;53.172;8.256;2024-02-15T08:20:06;22.00;;;14.53;;
16063;SDS011;8136;53.172;8.256;2024-02-15T08:22:34;24.43;;;14.50;;
16063;SDS011;8136;53.172;8.256;2024-02-15T08:25:05;23.93;;;15.30;;
16063;SDS011;8136;53.172;8.256;2024-02-15T08:27:35;26.93;;;14.60;;
16063;SDS011;8136;53.172;8.256;2024-02-15T08:30:08;24.80;;;14.83;;
16063;SDS011;8136;53.172;8.256;2024-02-15T08:32:36;22.60;;;14.13;;
16063;SDS011;8136;53.172;8.256;2024-02-15T08:35:04;24.50;;;15.57;;
16063;SDS011;8136;53.172;8.256;2024-02-15T08:37:33;28.83;;;15.13;;
16063;SDS011;8136;53.172;8.256;2024-02-15T08:40:00;26.20;;;14.53;;
16063;SDS011;8136;53.172;8.256;2024-02-15T08:42:27;22.23;;;13.23;;
16063;SDS011;8136;53.172;8.256;2024-02-15T08:44:54;21.10;;;13.63;;
16063;SDS011;8136;53.172;8.256;2024-02-15T08:47:22;21.73;;;13.10;;
16063;SDS011;8136;53.172;8.256;2024-02-15T08:49:49;26.97;;;13.90;;
16063;SDS011;8136;53.172;8.256;2024-02-15T08:52:16;25.60;;;13.90;;
16063;SDS011;8136;53.172;8.256;2024-02-15T08:54:43;24.93;;;13.53;;
16063;SDS011;8136;53.172;8.256;2024-02-15T08:57:10;21.60;;;13.40;;
16063;SDS011;8136;53.172;8.256;2024-02-15T08:59:38;18.83;;;12.20;;
16063;SDS011;8136;53.172;8.256;2024-02-15T09:02:08;24.37;;;12.37;;
16063;SDS011;8136;53.172;8.256;2024-02-15T09:04:36;26.90;;;14.30;;
16063;SDS011;8136;53.172;8.256;2024-02-15T09:07:03;22.73;;;13.87;;
16063;SDS011;8136;53.172;8.256;2024-02-15T09:09:30;24.80;;;13.97;;
16063;SDS011;8136;53.172;8.256;2024-02-15T09:12:00;21.20;;;14.23;;
16063;SDS011;8136;53.172;8.256;2024-02-15T09:14:30;22.57;;;13.10;;
16063;SDS011;8136;53.172;8.256;2024-02-15T09:16:57;22.47;;;14.20;;
16063;SDS011;8136;53.172;8.256;2024-02-15T09:19:24;21.83;;;13.37;;
16063;SDS011;8136;53.172;8.256;2024-02-15T13:16:25;12.37;;;7.40;;
16063;SDS011;8136;53.172;8.256;2024-02-15T13:18:55;8.13;;;7.33;;
16063;SDS011;8136;53.172;8.256;2024-02-15T13:21:23;8.63;;;7.87;;
16063;SDS011;8136;53.172;8.256;2024-02-15T13:23:56;8.40;;;7.00;;
16063;SDS011;8136;53.172;8.256;2024-02-15T13:26:24;6.77;;;6.07;;
16063;SDS011;8136;53.172;8.256;2024-02-15T13:28:51;7.10;;;6.37;;
16063;SDS011;8136;53.172;8.256;2024-02-15T13:31:20;6.30;;;5.70;;
16063;SDS011;8136;53.172;8.256;2024-02-15T13:33:49;6.77;;;6.10;;
16063;SDS011;8136;53.172;8.256;2024-02-15T13:36:21;5.97;;;5.37;;
16063;SDS011;8136;53.172;8.256;2024-02-15T13:38:51;6.57;;;5.37;;
16063;SDS011;8136;53.172;8.256;2024-02-15T13:41:29;6.63;;;6.03;;
16063;SDS011;8136;53.172;8.256;2024-02-15T13:43:59;7.53;;;5.30;;
16063;SDS011;8136;53.172;8.256;2024-02-15T13:46:26;6.37;;;5.20;;
16063;SDS011;8136;53.172;8.256;2024-02-15T13:49:36;5.50;;;5.00;;
16063;SDS011;8136;53.172;8.256;2024-02-15T13:52:03;5.57;;;5.07;;
16063;SDS011;8136;53.172;8.256;2024-02-15T13:54:31;5.83;;;5.23;;
16063;SDS011;8136;53.172;8.256;2024-02-15T13:57:00;6.23;;;5.43;;
16063;SDS011;8136;53.172;8.256;2024-02-15T13:59:27;7.23;;;5.07;;
16063;SDS011;8136;53.172;8.256;2024-02-15T14:01:55;6.03;;;5.43;;
16063;SDS011;8136;53.172;8.256;2024-02-15T14:04:25;5.80;;;5.07;;
16063;SDS011;8136;53.172;8.256;2024-02-15T14:06:59;7.83;;;5.30;;
16063;SDS011;8136;53.172;8.256;2024-02-15T14:09:29;6.83;;;5.60;;
16063;SDS011;8136;53.172;8.256;2024-02-15T14:11:56;6.23;;;5.63;;
16063;SDS011;8136;53.172;8.256;2024-02-15T14:14:23;5.87;;;5.20;;
16063;SDS011;8136;53.172;8.256;2024-02-15T14:16:50;6.77;;;5.67;;
16063;SDS011;8136;53.172;8.256;2024-02-15T14:19:17;6.40;;;5.80;;
16063;SDS011;8136;53.172;8.256;2024-02-15T14:21:46;7.10;;;5.80;;
16063;SDS011;8136;53.172;8.256;2024-02-15T14:24:14;6.53;;;5.57;;
16063;SDS011;8136;53.172;8.256;2024-02-15T14:26:44;7.97;;;5.37;;
16063;SDS011;8136;53.172;8.256;2024-02-15T14:29:11;8.03;;;6.03;;
16063;SDS011;8136;53.172;8.256;2024-02-15T14:31:45;5.93;;;5.33;;
16063;SDS011;8136;53.172;8.256;2024-02-15T14:34:29;7.10;;;5.87;;
16063;SDS011;8136;53.172;8.256;2024-02-15T14:37:01;6.13;;;5.40;;
16063;SDS011;8136;53.172;8.256;2024-02-15T14:42:31;6.40;;;5.80;;
16063;SDS011;8136;53.172;8.256;2024-02-15T14:45:07;7.13;;;5.20;;
16063;SDS011;8136;53.172;8.256;2024-02-15T14:47:48;8.60;;;6.10;;
16063;SDS011;8136;53.172;8.256;2024-02-15T14:50:15;5.47;;;4.97;;
16063;SDS011;8136;53.172;8.256;2024-02-15T14:52:42;5.93;;;5.33;;
16063;SDS011;8136;53.172;8.256;2024-02-15T14:55:11;5.33;;;4.90;;
16063;SDS011;8136;53.172;8.256;2024-02-15T14:57:38;6.00;;;5.40;;
16063;SDS011;8136;53.172;8.256;2024-02-15T15:00:06;7.20;;;5.63;;
16063;SDS011;8136;53.172;8.256;2024-02-15T15:02:37;6.63;;;5.93;;
16063;SDS011;8136;53.172;8.256;2024-02-15T15:05:08;6.03;;;5.50;;
16063;SDS011;8136;53.172;8.256;2024-02-15T15:07:53;6.50;;;5.77;;
16063;SDS011;8136;53.172;8.256;2024-02-15T15:10:38;6.77;;;6.10;;
16063;SDS011;8136;53.172;8.256;2024-02-15T15:13:23;6.17;;;5.47;;
16063;SDS011;8136;53.172;8.256;2024-02-15T15:15:50;7.13;;;6.10;;
16063;SDS011;8136;53.172;8.256;2024-02-15T15:18:18;6.67;;;5.90;;
16063;SDS011;8136;53.172;8.256;2024-02-15T15:24:07;6.67;;;6.00;;
